createdAt,value
2019-05-19T00:02:03.182Z,83.40
2019-05-19T00:04:31.522Z,83.40
2019-05-19T00:06:59.798Z,83.50
2019-05-19T00:09:28.181Z,83.50
2019-05-19T00:11:56.429Z,83.50
2019-05-19T00:14:24.700Z,83.60
2019-05-19T00:16:53.001Z,83.60
2019-05-19T00:19:26.641Z,83.70
2019-05-19T00:21:51.871Z,83.90
2019-05-19T00:24:20.161Z,84.00
2019-05-19T00:26:48.605Z,84.20
2019-05-19T00:29:16.967Z,84.40
2019-05-19T00:31:45.238Z,84.40
2019-05-19T00:34:13.530Z,84.70
2019-05-19T00:36:41.788Z,84.80
2019-05-19T00:39:10.168Z,85.00
2019-05-19T00:41:38.536Z,85.10
2019-05-19T00:44:06.789Z,85.30
2019-05-19T00:46:35.095Z,85.50
2019-05-19T00:49:03.379Z,85.50
2019-05-19T00:51:31.622Z,85.60
2019-05-19T00:53:59.893Z,85.80
2019-05-19T00:56:28.155Z,85.90
2019-05-19T00:58:57.359Z,86.10
2019-05-19T01:01:25.668Z,86.40
2019-05-19T01:03:54.548Z,86.50
2019-05-19T01:06:22.909Z,86.70
2019-05-19T01:08:51.180Z,86.80
2019-05-19T01:11:19.428Z,87.10
2019-05-19T01:13:47.732Z,87.00
2019-05-19T01:16:15.989Z,87.10
2019-05-19T01:18:44.258Z,87.00
2019-05-19T01:21:12.847Z,87.20
2019-05-19T01:23:41.096Z,87.50
2019-05-19T01:26:09.360Z,87.50
2019-05-19T01:28:37.606Z,87.50
2019-05-19T01:31:05.960Z,87.70
2019-05-19T01:33:34.593Z,87.60
2019-05-19T01:36:02.863Z,87.50
2019-05-19T01:38:31.107Z,87.50
2019-05-19T01:40:59.379Z,87.40
2019-05-19T01:43:27.639Z,87.60
2019-05-19T01:45:55.908Z,87.70
2019-05-19T01:48:24.251Z,87.80
2019-05-19T01:50:52.509Z,87.90
2019-05-19T01:53:20.765Z,88.00
2019-05-19T01:55:49.035Z,88.10
2019-05-19T01:58:17.293Z,88.10
2019-05-19T02:00:46.111Z,88.10
2019-05-19T02:03:14.342Z,88.30
2019-05-19T02:05:43.572Z,88.20
2019-05-19T02:08:11.816Z,88.30
2019-05-19T02:10:40.248Z,88.20
2019-05-19T02:13:08.514Z,88.10
2019-05-19T02:15:36.868Z,88.20
2019-05-19T02:18:05.178Z,88.10
2019-05-19T02:20:34.001Z,88.20
2019-05-19T02:23:02.722Z,88.20
2019-05-19T02:25:31.678Z,88.30
2019-05-19T02:27:59.917Z,88.20
2019-05-19T02:30:30.685Z,88.20
2019-05-19T02:32:59.107Z,88.10
2019-05-19T02:35:28.174Z,88.10
2019-05-19T02:37:56.427Z,88.10
2019-05-19T02:40:24.709Z,88.30
2019-05-19T02:42:53.050Z,87.80
2019-05-19T02:45:21.532Z,88.30
2019-05-19T02:47:49.798Z,88.10
2019-05-19T02:50:19.505Z,88.00
2019-05-19T02:52:47.774Z,88.00
2019-05-19T02:55:16.301Z,87.90
2019-05-19T02:57:44.572Z,87.70
2019-05-19T03:00:13.086Z,88.00
2019-05-19T03:02:41.449Z,87.90
2019-05-19T03:05:09.875Z,87.90
2019-05-19T03:07:38.270Z,87.90
2019-05-19T03:10:06.609Z,88.10
2019-05-19T03:12:34.893Z,88.10
2019-05-19T03:15:03.430Z,88.20
2019-05-19T03:17:31.696Z,87.70
2019-05-19T03:20:00.139Z,87.60
2019-05-19T03:22:28.593Z,87.30
2019-05-19T03:24:56.899Z,87.00
2019-05-19T03:27:25.195Z,87.20
2019-05-19T03:29:55.100Z,87.20
2019-05-19T03:32:25.262Z,87.40
2019-05-19T03:34:53.548Z,87.60
2019-05-19T03:37:21.909Z,87.50
2019-05-19T03:39:50.181Z,87.60
2019-05-19T03:42:19.253Z,87.80
2019-05-19T03:44:47.508Z,88.10
2019-05-19T03:47:15.785Z,88.20
2019-05-19T03:49:44.186Z,88.20
2019-05-19T03:52:12.533Z,88.30
2019-05-19T03:54:40.808Z,88.50
2019-05-19T03:57:09.089Z,88.40
2019-05-19T03:59:37.377Z,88.20
2019-05-19T04:02:05.951Z,88.20
2019-05-19T04:04:34.365Z,88.00
2019-05-19T04:07:02.630Z,88.00
2019-05-19T04:09:30.889Z,88.20
2019-05-19T04:11:59.164Z,88.30
2019-05-19T04:14:27.513Z,88.30
2019-05-19T04:16:56.725Z,88.50
2019-05-19T04:19:25.125Z,88.50
2019-05-19T04:21:53.375Z,88.60
2019-05-19T04:24:21.639Z,88.70
2019-05-19T04:26:50.143Z,88.60
2019-05-19T04:29:18.400Z,88.50
2019-05-19T04:31:46.664Z,88.30
2019-05-19T04:34:14.895Z,88.30
2019-05-19T04:36:43.166Z,88.30
2019-05-19T04:39:11.438Z,88.10
2019-05-19T04:41:40.429Z,88.50
2019-05-19T04:44:08.806Z,88.60
2019-05-19T04:46:37.248Z,88.70
2019-05-19T04:49:05.500Z,88.40
2019-05-19T04:51:33.882Z,88.20
2019-05-19T04:54:02.135Z,88.10
2019-05-19T04:56:30.359Z,88.00
2019-05-19T04:58:58.660Z,88.00
2019-05-19T05:01:26.911Z,88.10
2019-05-19T05:03:55.295Z,87.80
2019-05-19T05:06:23.882Z,88.00
2019-05-19T05:08:52.097Z,88.00
2019-05-19T05:11:20.343Z,88.10
2019-05-19T05:13:48.741Z,88.20
2019-05-19T05:16:17.162Z,88.30
2019-05-19T05:18:47.877Z,88.30
2019-05-19T05:21:15.615Z,88.50
2019-05-19T05:23:43.915Z,88.10
2019-05-19T05:26:12.150Z,87.90
2019-05-19T05:28:40.462Z,87.70
2019-05-19T05:31:08.806Z,87.70
2019-05-19T05:33:37.095Z,87.60
2019-05-19T05:36:05.399Z,87.50
2019-05-19T05:38:33.688Z,87.10
2019-05-19T05:41:01.926Z,87.20
2019-05-19T05:43:30.284Z,87.30
2019-05-19T05:45:58.511Z,87.50
2019-05-19T05:48:26.867Z,87.90
2019-05-19T05:50:55.188Z,88.20
2019-05-19T05:53:23.486Z,88.00
2019-05-19T05:55:51.715Z,87.90
2019-05-19T05:58:19.942Z,87.80
2019-05-19T06:00:48.176Z,88.00
2019-05-19T06:03:16.390Z,88.00
2019-05-19T06:05:44.628Z,88.00
2019-05-19T06:08:12.835Z,87.90
2019-05-19T06:10:41.066Z,88.20
2019-05-19T06:13:09.307Z,88.20
2019-05-19T06:15:37.557Z,88.20
2019-05-19T06:18:05.949Z,88.10
2019-05-19T06:20:34.202Z,88.30
2019-05-19T06:23:02.504Z,88.30
2019-05-19T06:25:30.843Z,88.00
2019-05-19T06:27:59.099Z,88.20
2019-05-19T06:30:27.378Z,88.10
2019-05-19T06:32:57.349Z,88.20
2019-05-19T06:35:25.642Z,88.30
2019-05-19T06:37:53.933Z,88.30
2019-05-19T06:40:22.171Z,88.00
2019-05-19T06:42:50.625Z,88.20
2019-05-19T06:45:19.133Z,88.50
2019-05-19T06:47:47.543Z,88.50
2019-05-19T06:50:15.809Z,88.10
2019-05-19T06:52:44.055Z,88.10
2019-05-19T06:55:12.390Z,88.50
2019-05-19T06:57:40.818Z,88.70
2019-05-19T07:00:09.111Z,88.50
2019-05-19T07:02:37.548Z,88.30
2019-05-19T07:05:06.451Z,88.20
2019-05-19T07:07:34.749Z,88.20
2019-05-19T07:10:03.968Z,88.10
2019-05-19T07:12:32.244Z,87.60
2019-05-19T07:15:00.458Z,87.80
2019-05-19T07:17:28.728Z,88.10
2019-05-19T07:19:57.059Z,87.80
2019-05-19T07:22:25.390Z,87.40
2019-05-19T07:24:53.767Z,87.70
2019-05-19T07:27:22.037Z,88.00
2019-05-19T07:29:50.366Z,87.70
2019-05-19T07:32:18.711Z,87.40
2019-05-19T07:34:47.128Z,87.50
2019-05-19T07:37:15.529Z,87.60
2019-05-19T07:39:43.808Z,87.70
2019-05-19T07:42:12.084Z,87.40
2019-05-19T07:44:40.403Z,87.10
2019-05-19T07:47:08.766Z,86.70
2019-05-19T07:49:37.057Z,86.60
2019-05-19T07:52:05.322Z,86.50
2019-05-19T07:54:33.686Z,86.40
2019-05-19T07:57:03.043Z,86.40
2019-05-19T07:59:31.457Z,86.40
2019-05-19T08:01:59.771Z,86.40
2019-05-19T08:04:28.056Z,86.50
2019-05-19T08:06:56.505Z,86.40
2019-05-19T08:09:24.851Z,86.30
2019-05-19T08:11:53.092Z,86.70
2019-05-19T08:14:21.452Z,86.40
2019-05-19T08:16:49.748Z,85.80
2019-05-19T08:19:17.972Z,86.00
2019-05-19T08:21:46.239Z,85.50
2019-05-19T08:24:14.518Z,85.40
2019-05-19T08:26:42.837Z,85.60
2019-05-19T08:29:11.219Z,85.50
2019-05-19T08:31:39.662Z,85.10
2019-05-19T08:34:08.158Z,84.90
2019-05-19T08:36:36.525Z,84.60
2019-05-19T08:39:06.147Z,85.00
2019-05-19T08:41:35.143Z,85.20
2019-05-19T08:44:04.268Z,85.30
2019-05-19T08:46:32.547Z,86.00
2019-05-19T08:49:00.813Z,85.60
2019-05-19T08:51:29.104Z,85.50
2019-05-19T08:53:57.453Z,86.00
2019-05-19T08:56:25.770Z,86.00
2019-05-19T08:58:54.232Z,86.20
2019-05-19T09:01:22.792Z,85.20
2019-05-19T09:03:51.095Z,85.00
2019-05-19T09:06:21.159Z,85.50
2019-05-19T09:08:49.483Z,85.80
2019-05-19T09:11:17.749Z,85.30
2019-05-19T09:13:46.019Z,85.00
2019-05-19T09:16:14.242Z,84.40
2019-05-19T09:18:42.601Z,84.50
2019-05-19T09:21:10.882Z,84.70
2019-05-19T09:23:39.246Z,84.60
2019-05-19T09:26:07.533Z,84.70
2019-05-19T09:28:35.891Z,85.20
2019-05-19T09:31:04.238Z,84.50
2019-05-19T09:33:32.537Z,84.50
2019-05-19T09:36:00.841Z,84.90
2019-05-19T09:38:29.110Z,84.40
2019-05-19T09:40:57.452Z,84.90
2019-05-19T09:43:25.719Z,86.10
2019-05-19T09:45:54.860Z,85.30
2019-05-19T09:48:23.253Z,84.70
2019-05-19T09:50:51.485Z,84.50
2019-05-19T09:53:19.749Z,83.50
2019-05-19T09:55:48.005Z,83.20
2019-05-19T09:58:19.870Z,83.20
2019-05-19T10:00:46.425Z,82.90
2019-05-19T10:03:14.737Z,82.80
2019-05-19T10:05:42.954Z,82.30
2019-05-19T10:08:11.170Z,82.60
2019-05-19T10:10:54.886Z,81.50
2019-05-19T10:13:23.135Z,81.20
2019-05-19T10:15:51.357Z,81.00
2019-05-19T10:18:19.675Z,80.90
2019-05-19T10:20:50.403Z,80.80
2019-05-19T10:23:17.846Z,81.20
2019-05-19T10:25:46.178Z,81.00
2019-05-19T10:28:14.486Z,80.70
2019-05-19T10:30:42.744Z,79.90
2019-05-19T10:33:11.000Z,79.80
2019-05-19T10:35:39.209Z,80.40
2019-05-19T10:38:07.456Z,80.20
2019-05-19T10:40:35.936Z,79.40
2019-05-19T10:43:05.006Z,78.30
2019-05-19T10:45:33.232Z,77.40
2019-05-19T10:48:01.716Z,78.00
2019-05-19T10:50:30.069Z,77.80
2019-05-19T10:52:58.355Z,77.40
2019-05-19T10:55:36.223Z,78.20
2019-05-19T10:57:56.744Z,77.80
2019-05-19T11:00:25.135Z,76.70
2019-05-19T11:02:53.333Z,76.00
2019-05-19T11:05:22.081Z,76.80
2019-05-19T11:07:50.354Z,76.30
2019-05-19T11:10:18.589Z,76.50
2019-05-19T11:12:47.071Z,75.70
2019-05-19T11:15:15.502Z,76.50
2019-05-19T11:17:43.906Z,76.10
2019-05-19T11:20:12.154Z,77.30
2019-05-19T11:22:40.430Z,76.70
2019-05-19T11:25:08.640Z,74.70
2019-05-19T11:27:37.265Z,75.60
2019-05-19T11:30:06.462Z,75.40
2019-05-19T11:32:35.730Z,75.20
2019-05-19T11:35:05.935Z,75.20
2019-05-19T11:37:34.300Z,75.80
2019-05-19T11:40:03.126Z,76.10
2019-05-19T11:42:31.450Z,76.00
2019-05-19T11:45:25.447Z,75.40
2019-05-19T11:47:53.735Z,74.60
2019-05-19T11:50:21.952Z,73.10
2019-05-19T11:52:50.277Z,73.30
2019-05-19T11:55:18.509Z,74.50
2019-05-19T11:57:46.754Z,74.10
2019-05-19T12:00:15.120Z,72.10
2019-05-19T12:02:43.337Z,72.40
2019-05-19T12:05:11.557Z,73.20
2019-05-19T12:07:40.570Z,74.60
2019-05-19T12:10:09.385Z,74.40
2019-05-19T12:12:37.637Z,73.90
2019-05-19T12:15:07.286Z,74.20
2019-05-19T12:17:35.663Z,72.60
2019-05-19T12:20:04.269Z,72.80
2019-05-19T12:22:32.505Z,74.20
2019-05-19T12:25:00.807Z,72.80
2019-05-19T12:27:29.192Z,73.00
2019-05-19T12:29:57.409Z,71.20
2019-05-19T12:32:25.819Z,70.50
2019-05-19T12:34:54.215Z,71.60
2019-05-19T12:37:22.591Z,71.90
2019-05-19T12:39:50.980Z,72.10
2019-05-19T12:42:19.207Z,71.80
2019-05-19T12:44:47.557Z,72.00
2019-05-19T12:47:15.914Z,70.40
2019-05-19T12:49:44.302Z,68.90
2019-05-19T12:52:12.700Z,68.70
2019-05-19T12:54:40.936Z,70.40
2019-05-19T12:57:09.196Z,70.40
2019-05-19T12:59:37.444Z,70.90
2019-05-19T13:02:05.747Z,71.20
2019-05-19T13:04:34.949Z,70.50
2019-05-19T13:07:03.240Z,69.70
2019-05-19T13:09:31.619Z,70.00
2019-05-19T13:11:59.887Z,69.70
2019-05-19T13:14:28.264Z,69.80
2019-05-19T13:16:56.553Z,69.50
2019-05-19T13:19:24.801Z,69.50
2019-05-19T13:21:53.093Z,70.20
2019-05-19T13:24:21.419Z,70.80
2019-05-19T13:26:56.591Z,69.30
2019-05-19T13:29:19.668Z,68.80
2019-05-19T13:31:47.909Z,67.90
2019-05-19T13:34:16.298Z,69.10
2019-05-19T13:36:44.575Z,69.10
2019-05-19T13:39:12.796Z,68.00
2019-05-19T13:41:41.019Z,67.80
2019-05-19T13:44:09.254Z,68.20
2019-05-19T13:46:37.791Z,68.50
2019-05-19T13:49:06.085Z,67.30
2019-05-19T13:51:34.715Z,67.00
2019-05-19T13:54:03.275Z,66.80
2019-05-19T13:56:31.506Z,66.70
2019-05-19T13:58:59.817Z,66.50
2019-05-19T14:01:29.098Z,66.10
2019-05-19T14:03:57.446Z,66.30
2019-05-19T14:06:25.779Z,66.50
2019-05-19T14:08:54.002Z,66.40
2019-05-19T14:11:22.246Z,66.30
2019-05-19T14:13:50.468Z,66.60
2019-05-19T14:16:18.690Z,66.30
2019-05-19T14:18:46.925Z,67.10
2019-05-19T14:21:15.140Z,66.30
2019-05-19T14:23:43.379Z,66.50
2019-05-19T14:26:12.701Z,66.20
2019-05-19T14:28:40.925Z,66.10
2019-05-19T14:31:09.224Z,65.80
2019-05-19T14:33:37.439Z,66.80
2019-05-19T14:36:06.557Z,66.00
2019-05-19T14:38:34.771Z,65.90
2019-05-19T14:41:03.097Z,66.10
2019-05-19T14:43:33.024Z,65.60
2019-05-19T14:46:01.262Z,65.60
2019-05-19T14:48:29.490Z,65.10
2019-05-19T14:50:57.767Z,64.80
2019-05-19T14:53:26.153Z,64.10
2019-05-19T14:55:54.844Z,64.40
2019-05-19T14:58:23.472Z,64.60
2019-05-19T15:00:51.859Z,64.10
2019-05-19T15:03:20.076Z,64.30
2019-05-19T15:05:48.342Z,64.20
2019-05-19T15:08:16.874Z,64.20
2019-05-19T15:10:45.204Z,64.80
2019-05-19T15:13:13.613Z,64.90
2019-05-19T15:15:41.828Z,65.10
2019-05-19T15:18:10.065Z,65.50
2019-05-19T15:20:38.313Z,65.00
2019-05-19T15:23:06.563Z,64.00
2019-05-19T15:25:34.835Z,63.20
2019-05-19T15:28:05.399Z,63.50
2019-05-19T15:30:33.210Z,63.20
2019-05-19T15:33:01.451Z,64.00
2019-05-19T15:35:29.678Z,63.70
2019-05-19T15:37:58.289Z,63.90
2019-05-19T15:40:26.513Z,63.60
2019-05-19T15:42:54.730Z,64.00
2019-05-19T15:45:22.992Z,64.50
2019-05-19T15:47:51.291Z,64.20
2019-05-19T15:50:19.507Z,64.70
2019-05-19T15:52:47.739Z,64.70
2019-05-19T15:55:15.970Z,64.40
2019-05-19T15:57:44.194Z,64.70
2019-05-19T16:00:12.459Z,64.50
2019-05-19T16:02:40.842Z,64.70
2019-05-19T16:05:10.068Z,64.70
2019-05-19T16:07:38.303Z,65.00
2019-05-19T16:10:08.436Z,64.80
2019-05-19T16:12:36.885Z,64.50
2019-05-19T16:15:06.306Z,64.30
2019-05-19T16:17:34.530Z,64.10
2019-05-19T16:20:02.942Z,63.90
2019-05-19T16:22:31.208Z,64.00
2019-05-19T16:24:59.446Z,63.90
2019-05-19T16:27:27.746Z,64.00
2019-05-19T16:29:56.019Z,64.10
2019-05-19T16:32:24.334Z,63.90
2019-05-19T16:34:52.714Z,63.50
2019-05-19T16:37:20.998Z,63.40
2019-05-19T16:39:49.373Z,63.20
2019-05-19T16:42:17.643Z,63.40
2019-05-19T16:44:46.013Z,63.30
2019-05-19T16:47:14.359Z,63.20
2019-05-19T16:49:42.955Z,63.60
2019-05-19T16:52:11.205Z,63.70
2019-05-19T16:54:42.741Z,63.50
2019-05-19T16:57:11.409Z,63.10
2019-05-19T16:59:39.783Z,63.70
2019-05-19T17:02:08.146Z,63.90
2019-05-19T17:04:36.363Z,63.90
2019-05-19T17:07:05.351Z,64.40
2019-05-19T17:09:33.566Z,64.10
2019-05-19T17:12:01.803Z,64.20
2019-05-19T17:14:30.152Z,64.40
2019-05-19T17:16:58.383Z,64.50
2019-05-19T17:19:26.617Z,64.30
2019-05-19T17:21:54.866Z,64.50
2019-05-19T17:24:23.157Z,64.50
2019-05-19T17:26:51.390Z,64.10
2019-05-19T17:29:19.676Z,64.30
2019-05-19T17:31:47.937Z,64.30
2019-05-19T17:34:16.235Z,64.70
2019-05-19T17:36:45.848Z,64.90
2019-05-19T17:39:14.273Z,64.80
2019-05-19T17:41:42.586Z,65.10
2019-05-19T17:44:10.831Z,64.80
2019-05-19T17:46:39.574Z,65.00
2019-05-19T17:49:07.819Z,65.20
2019-05-19T17:51:36.045Z,65.50
2019-05-19T17:54:04.607Z,65.50
2019-05-19T17:56:32.924Z,65.00
2019-05-19T17:59:14.552Z,65.30
2019-05-19T18:01:31.438Z,65.70
2019-05-19T18:03:59.717Z,66.00
2019-05-19T18:06:29.922Z,66.00
2019-05-19T18:08:58.190Z,66.40
2019-05-19T18:11:26.526Z,66.80
2019-05-19T18:13:54.810Z,66.90
2019-05-19T18:16:23.180Z,67.20
2019-05-19T18:18:51.463Z,67.60
2019-05-19T18:21:19.723Z,68.00
2019-05-19T18:23:48.079Z,68.00
2019-05-19T18:26:16.360Z,68.10
2019-05-19T18:28:44.619Z,68.30
2019-05-19T18:31:12.888Z,68.90
2019-05-19T18:33:41.170Z,69.10
2019-05-19T18:36:09.507Z,69.10
2019-05-19T18:38:37.831Z,69.10
2019-05-19T18:41:06.142Z,69.70
2019-05-19T18:43:34.531Z,70.30
2019-05-19T18:46:02.799Z,70.20
2019-05-19T18:48:31.083Z,70.40
2019-05-19T18:50:59.524Z,70.50
2019-05-19T18:53:28.425Z,70.90
2019-05-19T18:55:56.845Z,71.20
2019-05-19T18:58:25.107Z,71.50
2019-05-19T19:00:53.405Z,72.60
2019-05-19T19:03:21.665Z,71.90
2019-05-19T19:05:49.911Z,72.20
2019-05-19T19:08:18.143Z,72.50
2019-05-19T19:10:46.748Z,72.60
2019-05-19T19:13:14.971Z,72.90
2019-05-19T19:15:43.498Z,73.10
2019-05-19T19:18:11.838Z,73.40
2019-05-19T19:20:40.124Z,73.60
2019-05-19T19:23:08.429Z,73.80
2019-05-19T19:25:36.759Z,74.00
2019-05-19T19:28:05.007Z,74.20
2019-05-19T19:30:33.278Z,74.30
2019-05-19T19:33:01.509Z,74.60
2019-05-19T19:35:38.632Z,74.80
2019-05-19T19:37:59.935Z,75.00
2019-05-19T19:40:29.889Z,75.30
2019-05-19T19:43:01.687Z,75.30
2019-05-19T19:45:30.120Z,75.50
2019-05-19T19:47:58.343Z,75.50
2019-05-19T19:50:26.589Z,75.90
2019-05-19T19:52:54.880Z,76.30
2019-05-19T19:55:23.222Z,76.30
2019-05-19T19:57:51.559Z,76.30
2019-05-19T20:00:37.244Z,76.60
2019-05-19T20:03:06.552Z,76.70
2019-05-19T20:05:34.942Z,77.00
2019-05-19T20:08:03.200Z,77.20
2019-05-19T20:10:31.837Z,77.40
2019-05-19T20:13:00.054Z,77.50
2019-05-19T20:15:28.374Z,77.80
2019-05-19T20:17:56.660Z,77.80
2019-05-19T20:20:24.988Z,77.80
2019-05-19T20:22:53.267Z,77.80
2019-05-19T20:25:21.494Z,77.90
2019-05-19T20:27:49.731Z,77.90
2019-05-19T20:30:33.814Z,78.80
2019-05-19T20:32:48.188Z,78.10
2019-05-19T20:35:16.498Z,78.30
2019-05-19T20:37:45.048Z,78.50
2019-05-19T20:40:13.986Z,78.40
2019-05-19T20:42:42.247Z,78.50
2019-05-19T20:45:10.851Z,78.60
2019-05-19T20:47:39.156Z,78.80
2019-05-19T20:50:08.067Z,79.00
2019-05-19T20:52:36.338Z,79.10
2019-05-19T20:55:06.020Z,78.70
2019-05-19T20:57:34.355Z,79.30
2019-05-19T21:00:02.595Z,79.60
2019-05-19T21:02:30.915Z,79.60
2019-05-19T21:04:59.224Z,79.80
2019-05-19T21:07:27.496Z,80.00
2019-05-19T21:09:56.803Z,80.10
2019-05-19T21:12:25.090Z,80.40
2019-05-19T21:14:53.308Z,80.50
2019-05-19T21:17:21.538Z,80.70
2019-05-19T21:19:49.756Z,80.70
2019-05-19T21:22:18.402Z,80.70
2019-05-19T21:24:46.615Z,80.70
2019-05-19T21:27:15.064Z,80.80
2019-05-19T21:29:43.323Z,80.80
2019-05-19T21:32:11.547Z,81.00
2019-05-19T21:34:39.784Z,81.00
2019-05-19T21:37:08.446Z,81.10
2019-05-19T21:39:36.728Z,81.40
2019-05-19T21:42:04.955Z,81.40
2019-05-19T21:44:33.187Z,81.50
2019-05-19T21:47:01.489Z,81.70
2019-05-19T21:49:29.697Z,81.90
2019-05-19T21:51:57.954Z,81.90
2019-05-19T21:54:26.959Z,82.00
2019-05-19T21:56:55.200Z,82.10
2019-05-19T21:59:23.676Z,82.20
2019-05-19T22:01:51.927Z,82.30
2019-05-19T22:04:20.231Z,82.50
2019-05-19T22:06:52.952Z,82.50
2019-05-19T22:09:21.407Z,82.50
2019-05-19T22:11:49.895Z,82.70
2019-05-19T22:14:18.146Z,82.70
2019-05-19T22:16:46.386Z,82.90
2019-05-19T22:19:15.956Z,82.90
2019-05-19T22:21:44.918Z,83.00
2019-05-19T22:24:13.191Z,82.90
2019-05-19T22:26:41.435Z,82.80
2019-05-19T22:29:09.663Z,82.80
2019-05-19T22:31:37.947Z,83.00
2019-05-19T22:34:06.159Z,83.90
2019-05-19T22:36:34.391Z,83.10
2019-05-19T22:39:02.611Z,83.20
2019-05-19T22:41:30.931Z,83.20
2019-05-19T22:43:59.209Z,83.20
2019-05-19T22:46:28.023Z,83.30
2019-05-19T22:48:56.240Z,83.50
2019-05-19T22:51:24.538Z,83.50
2019-05-19T22:53:53.670Z,83.80
2019-05-19T22:56:21.913Z,83.90
2019-05-19T22:58:50.115Z,84.30
2019-05-19T23:01:18.432Z,84.50
2019-05-19T23:03:46.658Z,84.70
2019-05-19T23:06:14.898Z,85.00
2019-05-19T23:08:43.147Z,85.00
2019-05-19T23:11:11.356Z,85.40
2019-05-19T23:13:39.582Z,85.70
2019-05-19T23:16:07.802Z,85.90
2019-05-19T23:18:36.070Z,86.10
2019-05-19T23:21:04.340Z,86.10
2019-05-19T23:23:32.572Z,86.50
2019-05-19T23:26:00.833Z,86.60
2019-05-19T23:28:29.056Z,86.60
2019-05-19T23:30:57.347Z,86.70
2019-05-19T23:33:25.585Z,87.00
2019-05-19T23:35:53.807Z,87.00
2019-05-19T23:38:22.039Z,88.00
2019-05-19T23:40:50.349Z,87.00
2019-05-19T23:43:18.590Z,87.10
2019-05-19T23:45:46.854Z,87.10
2019-05-19T23:48:15.113Z,87.30
2019-05-19T23:50:43.503Z,87.30
2019-05-19T23:53:11.886Z,86.90
2019-05-19T23:55:40.115Z,86.80
2019-05-19T23:58:08.461Z,86.90
